This demonstration page uses our WeatherBlox Daily Observations layout. Learn more.

Left ArrowRight Arrow

39.92423, -83.80882

Hourly Observations for April 20, 2020

Temp ( °F °C ) Dew Point ( °F °C ) Humidity (%) Winds ( mph kmh ) Pressure ( in mb ) Visibility ( mi km ) Precip ( " mm )
12:56 am 00:56 Clear 46 7.8 36 2.2 68 68 N 8 13 29.77 1008 10 16.0934 0 0
1:56 am 01:56 Clear 44 6.7 35 1.7 71 71 NNE 8 13 29.78 1008 10 16.0934 0 0
2:56 am 02:56 Clear 41 5 37 2.8 86 86 NNE 12 19 29.76 1008 10 16.0934 0 0
3:56 am 03:56 Mostly Clear 39 3.9 36 2.2 89 89 NE 7 11 29.75 1008 10 16.0934 0.8 20.32
4:56 am 04:56 Mostly Clear 38 3.3 35 1.7 89 89 NNE 7 11 29.74 1007 10 16.0934 0.5 12.7
5:56 am 05:56 Clear 35 1.7 33 0.6 93 93 NE 8 13 29.75 1007 10 16.0934 0 0
6:56 am 06:56 Mostly Sunny 35 1.7 33 0.6 93 93 NE 9 15 29.77 1008 10 16.0934 0 0
7:56 am 07:56 Sunny 38 3.3 34 1.1 86 86 NE 8 13 29.8 1009 10 16.0934 0.01 0.254
8:56 am 08:56 Sunny 42 5.6 35 1.7 76 76 E 9 15 29.8 1009 10 16.0934 0 0
9:56 am 09:56 Sunny 46 7.8 35 1.7 66 66 ENE 8 13 29.8 1009 10 16.0934 0 0
10:56 am 10:56 Sunny 49 9.4 36 2.2 61 61 ENE 6 9 29.8 1009 10 16.0934 0 0
11:56 am 11:56 Sunny 52 11.1 36 2.2 55 55 Calm 29.8 1009 10 16.0934 0 0
12:56 pm 12:56 Sunny 54 12.2 33 0.6 45 45 WNW 3 6 29.79 1009 10 16.0934 0 0
1:56 pm 13:56 Sunny 56 13.3 32 0 40 40 Calm 29.78 1008 10 16.0934 0 0
2:56 pm 14:56 Sunny 58 14.4 34 1.1 41 41 WNW 10 17 29.76 1008 10 16.0934 0.21 5.334
3:56 pm 15:56 Sunny 59 15 33 0.6 38 38 WNW 8 13 29.74 1007 10 16.0934 0.05 1.27
4:56 pm 16:56 Sunny 59 15 31 -0.6 35 35 WSW 9 15 29.72 1006 10 16.0934 0 0
5:56 pm 17:56 Sunny 60 15.6 34 1.1 38 38 WSW 12 19 29.7 1006 10 16.0934 0.12 3.048
6:56 pm 18:56 Partly Cloudy 59 15 32 0 36 36 WSW 17 28 29.7 1006 10 16.0934 0 0
7:56 pm 19:56 Mostly Cloudy 57 13.9 34 1.1 42 42 WSW 12 19 29.69 1006 10 16.0934 0 0
8:56 pm 20:56 Partly Cloudy 54 12.2 34 1.1 47 47 SSW 6 9 29.68 1005 10 16.0934 0 0
9:56 pm 21:56 Mostly Cloudy 54 12.2 34 1.1 47 47 SSW 8 13 29.68 1005 10 16.0934 0 0
10:56 pm 22:56 Cloudy 54 12.2 37 2.8 53 53 WSW 7 11 29.68 1005 10 16.0934 0 0
11:56 pm 23:56 Cloudy 54 12.2 37 2.8 53 53 WSW 12 19 29.67 1005 10 16.0934 0 0

Powered by AerisWeather